Observation data for Amherst on 07/03/2020      Previous  Date  Next       Current Mesonet Observations  Soil Data  Daily Summary Page  Observations in Plain Language
KAMH 030500Z 12011KT 28/17 A3009 RMK A01 T02780165  RH  053%=      5-min Rain = 0
KAMH 030505Z 12011KT 28/17 A3009 RMK A01 T02770165  RH  053%=      5-min Rain = 0
KAMH 030510Z 12012KT 28/17 A3009 RMK A01 T02780166  RH  053%=      5-min Rain = 0
KAMH 030515Z 12011KT 28/17 A3009 RMK A01 T02770166  RH  053%=      5-min Rain = 0
KAMH 030520Z 11011KT 28/17 A3009 RMK A01 T02770167  RH  054%=      5-min Rain = 0
KAMH 030525Z 11011KT 28/17 A3009 RMK A01 T02760166  RH  054%=      5-min Rain = 0
KAMH 030530Z 10008KT 27/17 A301 RMK A01 T02740166  RH  054%=      5-min Rain = 0
KAMH 030535Z 10010KT 27/17 A301 RMK A01 T02740166  RH  054%=      5-min Rain = 0
KAMH 030540Z 10010KT 27/17 A301 RMK A01 T02730167  RH  055%=      5-min Rain = 0
KAMH 030545Z 10010KT 27/17 A301 RMK A01 T02730169  RH  056%=      5-min Rain = 0
KAMH 030550Z 10010KT 27/17 A301 RMK A01 T02720169  RH  056%=      5-min Rain = 0
KAMH 030555Z 11011KT 27/17 A301 RMK A01 T02720170  RH  056%=      5-min Rain = 0
KAMH 030600Z 11010KT 27/17 A301 RMK A01 T02710170  RH  057%=      5-min Rain = 0
KAMH 030605Z 11010KT 27/17 A301 RMK A01 T02700170  RH  057%=      5-min Rain = 0
KAMH 030610Z 11010KT 27/17 A301 RMK A01 T02690170  RH  057%=      5-min Rain = 0
KAMH 030615Z 11010KT 27/17 A301 RMK A01 T02690170  RH  058%=      5-min Rain = 0
KAMH 030620Z 11010KT 27/17 A301 RMK A01 T02690170  RH  058%=      5-min Rain = 0
KAMH 030625Z 11010KT 27/17 A301 RMK A01 T02690170  RH  058%=      5-min Rain = 0
KAMH 030630Z 11010KT 27/17 A301 RMK A01 T02680170  RH  058%=      5-min Rain = 0
KAMH 030635Z 11010KT 27/17 A301 RMK A01 T02680170  RH  058%=      5-min Rain = 0
KAMH 030640Z 12008KT 27/17 A301 RMK A01 T02670170  RH  058%=      5-min Rain = 0
KAMH 030645Z 12009KT 26/17 A301 RMK A01 T02630174  RH  061%=      5-min Rain = 0
KAMH 030650Z 12009KT 26/18 A3009 RMK A01 T02550180  RH  067%=      5-min Rain = 0
KAMH 030655Z 12009KT 25/18 A3009 RMK A01 T02510182  RH  069%=      5-min Rain = 0
KAMH 030700Z 12008KT 25/18 A301 RMK A01 T02490182  RH  070%=      5-min Rain = 0
KAMH 030705Z 12007KT 25/19 A301 RMK A01 T02460185  RH  072%=      5-min Rain = 0
KAMH 030710Z 14006KT 25/18 A301 RMK A01 T02460184  RH  072%=      5-min Rain = 0
KAMH 030715Z 13006KT 25/19 A301 RMK A01 T02460185  RH  072%=      5-min Rain = 0
KAMH 030720Z 13006KT 25/19 A3011 RMK A01 T02460185  RH  073%=      5-min Rain = 0
KAMH 030725Z 13006KT 25/18 A3011 RMK A01 T02460183  RH  072%=      5-min Rain = 0
KAMH 030730Z 15005KT 25/19 A3011 RMK A01 T02450185  RH  073%=      5-min Rain = 0
KAMH 030735Z 14005KT 24/18 A3011 RMK A01 T02440184  RH  073%=      5-min Rain = 0
KAMH 030740Z 14005KT 24/18 A301 RMK A01 T02440184  RH  073%=      5-min Rain = 0
KAMH 030745Z 16003KT 24/19 A3011 RMK A01 T02430186  RH  074%=      5-min Rain = 0
KAMH 030750Z 17003KT 24/19 A3011 RMK A01 T02430188  RH  076%=      5-min Rain = 0
KAMH 030755Z 17002KT 24/19 A301 RMK A01 T02440189  RH  076%=      5-min Rain = 0
KAMH 030800Z 22003KT 25/19 A3011 RMK A01 T02450188  RH  075%=      5-min Rain = 0
KAMH 030805Z 22005KT 25/18 A3011 RMK A01 T02480178  RH  069%=      5-min Rain = 0
KAMH 030810Z 22006KT 25/17 A3011 RMK A01 T02520172  RH  064%=      5-min Rain = 0
KAMH 030815Z 21006KT 25/17 A301 RMK A01 T02530165  RH  061%=      5-min Rain = 0
KAMH 030820Z 20006KT 25/16 A301 RMK A01 T02540162  RH  059%=      5-min Rain = 0
KAMH 030825Z 23008KT 25/16 A301 RMK A01 T02530161  RH  060%=      5-min Rain = 0
KAMH 030830Z 26015G20KT 24/16 A301 RMK A01 T02440160  RH  062%=      5-min Rain = 0
KAMH 030835Z 26013KT 23/16 A301 RMK A01 T02290158  RH  068%=      5-min Rain = 0
KAMH 030840Z 26012KT 22/16 A3009 RMK A01 T02240158  RH  069%=      5-min Rain = 0
KAMH 030845Z 26012KT 22/16 A3009 RMK A01 T02220158  RH  070%=      5-min Rain = 0
KAMH 030850Z 25012KT 22/16 A3008 RMK A01 T02230157  RH  069%=      5-min Rain = 0
KAMH 030855Z 25013KT 23/16 A3008 RMK A01 T02250157  RH  068%=      5-min Rain = 0
KAMH 030900Z 25013KT 23/16 A3007 RMK A01 T02280155  RH  066%=      5-min Rain = 0
KAMH 030905Z 24012KT 23/15 A3007 RMK A01 T02300154  RH  065%=      5-min Rain = 0
KAMH 030910Z 23014KT 23/16 A3006 RMK A01 T02300158  RH  067%=      5-min Rain = 0
KAMH 030915Z 22014KT 23/16 A3005 RMK A01 T02250159  RH  070%=      5-min Rain = 0
KAMH 030920Z 20012KT 22/16 A3004 RMK A01 T02210161  RH  072%=      5-min Rain = 0
KAMH 030925Z 21013G18KT 22/16 A3004 RMK A01 T02240160  RH  071%=      5-min Rain = 0
KAMH 030930Z 21012KT 22/16 A3004 RMK A01 T02220162  RH  072%=      5-min Rain = 0
KAMH 030935Z 20010G15KT 22/16 A3005 RMK A01 T02220162  RH  072%=      5-min Rain = 0
KAMH 030940Z 19010KT 22/16 A3005 RMK A01 T02240161  RH  071%=      5-min Rain = 0
KAMH 030945Z 20010KT 22/16 A3005 RMK A01 T02230161  RH  071%=      5-min Rain = 0
KAMH 030950Z 19010KT 22/16 A3005 RMK A01 T02220161  RH  072%=      5-min Rain = 0
KAMH 030955Z 19010KT 22/16 A3005 RMK A01 T02160163  RH  075%=      5-min Rain = 0
KAMH 031000Z 19009KT 22/16 A3005 RMK A01 T02180161  RH  073%=      5-min Rain = 0
KAMH 031005Z 20010KT 22/16 A3004 RMK A01 T02220158  RH  071%=      5-min Rain = 0
KAMH 031010Z 21010KT 23/15 A3005 RMK A01 T02270152  RH  066%=      5-min Rain = 0
KAMH 031015Z 21010KT 23/15 A3005 RMK A01 T02310146  RH  061%=      5-min Rain = 0
KAMH 031020Z 21009KT 23/14 A3005 RMK A01 T02330143  RH  060%=      5-min Rain = 0
KAMH 031025Z 21011KT 24/14 A3005 RMK A01 T02350144  RH  059%=      5-min Rain = 0
KAMH 031030Z 21011G16KT 24/15 A3005 RMK A01 T02360147  RH  060%=      5-min Rain = 0
KAMH 031035Z 21011KT 24/15 A3005 RMK A01 T02350151  RH  062%=      5-min Rain = 0
KAMH 031040Z 22011KT 24/15 A3005 RMK A01 T02360152  RH  062%=      5-min Rain = 0
KAMH 031045Z 21009KT 24/15 A3005 RMK A01 T02370153  RH  062%=      5-min Rain = 0
KAMH 031050Z 21007KT 24/15 A3006 RMK A01 T02380153  RH  062%=      5-min Rain = 0
KAMH 031055Z 21007KT 24/15 A3007 RMK A01 T02390153  RH  062%=      5-min Rain = 0
KAMH 031100Z 21008KT 24/15 A3007 RMK A01 T02370154  RH  062%=      5-min Rain = 0
KAMH 031105Z 22009KT 24/16 A3007 RMK A01 T02350155  RH  063%=      5-min Rain = 0
KAMH 031110Z 21008KT 23/16 A3007 RMK A01 T02340155  RH  064%=      5-min Rain = 0
KAMH 031115Z 20009KT 23/16 A3007 RMK A01 T02340155  RH  064%=      5-min Rain = 0
KAMH 031120Z 20007KT 23/15 A3007 RMK A01 T02340154  RH  063%=      5-min Rain = 0
KAMH 031125Z 19006KT 23/16 A3007 RMK A01 T02330155  RH  064%=      5-min Rain = 0
KAMH 031130Z 19006KT 23/16 A3007 RMK A01 T02320155  RH  065%=      5-min Rain = 0
KAMH 031135Z 19004KT 23/16 A3007 RMK A01 T02320155  RH  065%=      5-min Rain = 0
KAMH 031140Z 18002KT 23/16 A3008 RMK A01 T02300156  RH  066%=      5-min Rain = 0
KAMH 031145Z 13003KT 23/16 A3008 RMK A01 T02270157  RH  068%=      5-min Rain = 0
KAMH 031150Z 12003KT 22/16 A3008 RMK A01 T02220159  RH  071%=      5-min Rain = 0
KAMH 031155Z 11004KT 22/16 A3008 RMK A01 T02180162  RH  074%=      5-min Rain = 0
KAMH 031200Z 10004KT 22/16 A3008 RMK A01 T02160164  RH  076%=      5-min Rain = 0
KAMH 031205Z 07005KT 22/16 A3008 RMK A01 T02170164  RH  075%=      5-min Rain = 0
KAMH 031210Z 06004KT 22/16 A3008 RMK A01 T02200163  RH  074%=      5-min Rain = 0
KAMH 031215Z 06003KT 23/16 A3008 RMK A01 T02250163  RH  072%=      5-min Rain = 0
KAMH 031220Z 09004KT 23/16 A3008 RMK A01 T02290163  RH  069%=      5-min Rain = 0
KAMH 031225Z 09005KT 23/16 A3008 RMK A01 T02320164  RH  069%=      5-min Rain = 0
KAMH 031230Z 09005KT 23/17 A3008 RMK A01 T02340166  RH  069%=      5-min Rain = 0
KAMH 031235Z 10006KT 24/16 A3008 RMK A01 T02370163  RH  066%=      5-min Rain = 0
KAMH 031240Z 11006KT 24/16 A3009 RMK A01 T02410162  RH  064%=      5-min Rain = 0
KAMH 031245Z 11007KT 24/16 A3009 RMK A01 T02420161  RH  063%=      5-min Rain = 0
KAMH 031250Z 11006KT 24/16 A3009 RMK A01 T02440160  RH  062%=      5-min Rain = 0
KAMH 031255Z 11006KT 25/16 A301 RMK A01 T02450158  RH  061%=      5-min Rain = 0
KAMH 031300Z 14004KT 25/16 A301 RMK A01 T02470160  RH  061%=      5-min Rain = 0
KAMH 031305Z 15005KT 25/16 A301 RMK A01 T02510160  RH  060%=      5-min Rain = 0
KAMH 031310Z 17006KT 25/16 A301 RMK A01 T02520160  RH  059%=      5-min Rain = 0
KAMH 031315Z 18007KT 25/16 A301 RMK A01 T02520157  RH  058%=      5-min Rain = 0
KAMH 031320Z 18008KT 26/16 A301 RMK A01 T02550158  RH  057%=      5-min Rain = 0
KAMH 031325Z 18008KT 26/16 A3011 RMK A01 T02590156  RH  055%=      5-min Rain = 0
KAMH 031330Z 18010KT 26/16 A3011 RMK A01 T02620155  RH  054%=      5-min Rain = 0
KAMH 031335Z 19012G17KT 27/15 A301 RMK A01 T02700154  RH  051%=      5-min Rain = 0
KAMH 031340Z 18014KT 28/15 A301 RMK A01 T02750151  RH  049%=      5-min Rain = 0
KAMH 031345Z 19013KT 28/15 A301 RMK A01 T02760151  RH  048%=      5-min Rain = 0
KAMH 031350Z 19011KT 28/15 A301 RMK A01 T02800152  RH  048%=      5-min Rain = 0
KAMH 031355Z 19010KT 28/15 A3011 RMK A01 T02800152  RH  047%=      5-min Rain = 0
KAMH 031400Z 18012KT 28/15 A3011 RMK A01 T02800150  RH  047%=      5-min Rain = 0
KAMH 031405Z 18012KT 28/15 A3011 RMK A01 T02790149  RH  047%=      5-min Rain = 0.01
KAMH 031410Z 19012KT 28/15 A3012 RMK A01 T02780149  RH  047%=      5-min Rain = 0
KAMH 031415Z 18012KT 28/15 A3012 RMK A01 T02780150  RH  047%=      5-min Rain = 0
KAMH 031420Z 19012KT 28/15 A3012 RMK A01 T02790150  RH  047%=      5-min Rain = 0
KAMH 031425Z 19012KT 28/15 A3012 RMK A01 T02800151  RH  048%=      5-min Rain = 0
KAMH 031430Z 18014KT 28/15 A3012 RMK A01 T02790150  RH  047%=      5-min Rain = 0
KAMH 031435Z 18011KT 28/15 A3012 RMK A01 T02810152  RH  048%=      5-min Rain = 0
KAMH 031440Z 18010KT 28/15 A3012 RMK A01 T02830152  RH  047%=      5-min Rain = 0
KAMH 031445Z 20010KT 28/15 A3013 RMK A01 T02830152  RH  047%=      5-min Rain = 0
KAMH 031450Z 19010KT 28/15 A3013 RMK A01 T02830152  RH  047%=      5-min Rain = 0
KAMH 031455Z 19008G13KT 29/15 A3013 RMK A01 T02860152  RH  046%=      5-min Rain = 0
KAMH 031500Z 18007G12KT 29/15 A3013 RMK A01 T02860150  RH  045%=      5-min Rain = 0
KAMH 031505Z 19009KT 29/15 A3013 RMK A01 T02870148  RH  045%=      5-min Rain = 0
KAMH 031510Z 20007KT 29/15 A3013 RMK A01 T02900148  RH  044%=      5-min Rain = 0
KAMH 031515Z 19006KT 29/15 A3013 RMK A01 T02900147  RH  044%=      5-min Rain = 0
KAMH 031520Z 18009KT 29/15 A3013 RMK A01 T02940147  RH  043%=      5-min Rain = 0
KAMH 031525Z 19004G10KT 29/15 A3013 RMK A01 T02910145  RH  043%=      5-min Rain = 0
KAMH 031530Z 18006G12KT 30/15 A3013 RMK A01 T02990147  RH  041%=      5-min Rain = 0
KAMH 031535Z 18006KT 30/15 A3013 RMK A01 T02980145  RH  041%=      5-min Rain = 0
KAMH 031540Z 19008KT 30/15 A3013 RMK A01 T02990145  RH  041%=      5-min Rain = 0
KAMH 031545Z 19007G13KT 30/14 A3013 RMK A01 T02990144  RH  041%=      5-min Rain = 0
KAMH 031550Z 19006KT 30/14 A3013 RMK A01 T03010142  RH  040%=      5-min Rain = 0
KAMH 031555Z 17008G13KT 30/14 A3013 RMK A01 T03030142  RH  039%=      5-min Rain = 0
KAMH 031600Z 16007KT 31/14 A3013 RMK A01 T03050143  RH  039%=      5-min Rain = 0
KAMH 031605Z 14004G10KT 30/14 A3013 RMK A01 T03030143  RH  039%=      5-min Rain = 0
KAMH 031610Z 17007G13KT 31/14 A3013 RMK A01 T03080144  RH  038%=      5-min Rain = 0
KAMH 031615Z 16005KT 30/14 A3013 RMK A01 T03040142  RH  039%=      5-min Rain = 0
KAMH 031620Z 12006G11KT 31/14 A3013 RMK A01 T03110143  RH  038%=      5-min Rain = 0
KAMH 031625Z 11006KT 31/14 A3013 RMK A01 T03070142  RH  038%=      5-min Rain = 0
KAMH 031630Z 14006G11KT 31/14 A3013 RMK A01 T03130143  RH  037%=      5-min Rain = 0
KAMH 031635Z 13006G12KT 31/14 A3013 RMK A01 T03140143  RH  037%=      5-min Rain = 0
KAMH 031640Z 15007G13KT 31/14 A3014 RMK A01 T03120140  RH  037%=      5-min Rain = 0
KAMH 031645Z 14006KT 31/14 A3014 RMK A01 T03100140  RH  037%=      5-min Rain = 0
KAMH 031650Z 12006KT 31/14 A3014 RMK A01 T03100140  RH  037%=      5-min Rain = 0
KAMH 031655Z 11006G12KT 31/14 A3014 RMK A01 T03070139  RH  037%=      5-min Rain = 0
KAMH 031700Z 11007KT 31/14 A3014 RMK A01 T03110141  RH  037%=      5-min Rain = 0
KAMH 031705Z 14008G17KT 31/14 A3014 RMK A01 T03140142  RH  037%=      5-min Rain = 0
KAMH 031710Z 13007G12KT 31/14 A3014 RMK A01 T03100142  RH  037%=      5-min Rain = 0
KAMH 031715Z 15007G12KT 31/14 A3014 RMK A01 T03080140  RH  038%=      5-min Rain = 0
KAMH 031720Z 12008KT 31/14 A3013 RMK A01 T03090142  RH  038%=      5-min Rain = 0
KAMH 031725Z 15004G9KT 31/14 A3013 RMK A01 T03140141  RH  036%=      5-min Rain = 0
KAMH 031730Z 17009KT 32/14 A3013 RMK A01 T03150141  RH  036%=      5-min Rain = 0
KAMH 031735Z 12008G14KT 32/14 A3013 RMK A01 T03150143  RH  037%=      5-min Rain = 0
KAMH 031740Z 10009KT 32/14 A3013 RMK A01 T03230142  RH  035%=      5-min Rain = 0
KAMH 031745Z 11010KT 32/14 A3013 RMK A01 T03240141  RH  034%=      5-min Rain = 0
KAMH 031750Z 13008G14KT 32/14 A3013 RMK A01 T03240141  RH  034%=      5-min Rain = 0
KAMH 031755Z 13009G15KT 32/14 A3013 RMK A01 T03240142  RH  035%=      5-min Rain = 0
KAMH 031800Z 13007G13KT 33/14 A3013 RMK A01 T03270141  RH  034%=      5-min Rain = 0
KAMH 031805Z 15007G12KT 33/14 A3013 RMK A01 T03290142  RH  034%=      5-min Rain = 0
KAMH 031810Z 14007G15KT 33/14 A3013 RMK A01 T03290142  RH  034%=      5-min Rain = 0
KAMH 031815Z 14009KT 33/14 A3012 RMK A01 T03340139  RH  032%=      5-min Rain = 0
KAMH 031820Z 13007G14KT 33/14 A3012 RMK A01 T03330137  RH  032%=      5-min Rain = 0
KAMH 031825Z 13009G16KT 33/14 A3012 RMK A01 T03340138  RH  032%=      5-min Rain = 0
KAMH 031830Z 13011G18KT 33/13 A3012 RMK A01 T03310133  RH  031%=      5-min Rain = 0
KAMH 031835Z 12006G14KT 33/13 A3011 RMK A01 T03330134  RH  031%=      5-min Rain = 0
KAMH 031840Z 12012G19KT 34/13 A3011 RMK A01 T03350133  RH  031%=      5-min Rain = 0
KAMH 031845Z 12008G14KT 34/14 A3011 RMK A01 T03380136  RH  031%=      5-min Rain = 0
KAMH 031850Z 14010G15KT 34/13 A3011 RMK A01 T03380134  RH  031%=      5-min Rain = 0
KAMH 031855Z 11009G17KT 34/14 A3011 RMK A01 T03390136  RH  031%=      5-min Rain = 0
KAMH 031900Z 10010G15KT 34/14 A301 RMK A01 T03410135  RH  030%=      5-min Rain = 0
KAMH 031905Z 11007G13KT 34/13 A301 RMK A01 T03370134  RH  030%=      5-min Rain = 0
KAMH 031910Z 14010G15KT 33/13 A301 RMK A01 T03340131  RH  030%=      5-min Rain = 0
KAMH 031915Z 17012KT 33/13 A301 RMK A01 T03310131  RH  031%=      5-min Rain = 0
KAMH 031920Z 18008G15KT 34/13 A301 RMK A01 T03380130  RH  030%=      5-min Rain = 0
KAMH 031925Z 13010G15KT 34/13 A301 RMK A01 T03440127  RH  028%=      5-min Rain = 0
KAMH 031930Z 15008G13KT 34/12 A3009 RMK A01 T03420124  RH  028%=      5-min Rain = 0
KAMH 031935Z 16009G14KT 35/12 A3009 RMK A01 T03450122  RH  027%=      5-min Rain = 0
KAMH 031940Z 15007G15KT 34/12 A3009 RMK A01 T03440121  RH  027%=      5-min Rain = 0
KAMH 031945Z 14009G17KT 34/12 A3009 RMK A01 T03390121  RH  028%=      5-min Rain = 0
KAMH 031950Z 13009G14KT 34/12 A3008 RMK A01 T03370120  RH  028%=      5-min Rain = 0
KAMH 031955Z 13010G17KT 34/12 A3008 RMK A01 T03360118  RH  028%=      5-min Rain = 0
KAMH 032000Z 15012KT 34/12 A3008 RMK A01 T03430119  RH  027%=      5-min Rain = 0
KAMH 032005Z 16009KT 35/12 A3008 RMK A01 T03490115  RH  025%=      5-min Rain = 0
KAMH 032010Z 14003KT 35/11 A3008 RMK A01 T03450111  RH  025%=      5-min Rain = 0
KAMH 032015Z 14009G14KT 34/11 A3008 RMK A01 T03430112  RH  025%=      5-min Rain = 0
KAMH 032020Z 11009G16KT 35/11 A3007 RMK A01 T03460111  RH  025%=      5-min Rain = 0
KAMH 032025Z 14011G18KT 34/11 A3007 RMK A01 T03400111  RH  026%=      5-min Rain = 0
KAMH 032030Z 15011G16KT 35/11 A3007 RMK A01 T03450113  RH  025%=      5-min Rain = 0
KAMH 032035Z 13009G17KT 35/11 A3007 RMK A01 T03460110  RH  025%=      5-min Rain = 0
KAMH 032040Z 10013G18KT 35/11 A3007 RMK A01 T03450112  RH  025%=      5-min Rain = 0
KAMH 032045Z 08012KT 35/11 A3007 RMK A01 T03530112  RH  024%=      5-min Rain = 0
KAMH 032050Z 10010G16KT 35/11 A3007 RMK A01 T03490109  RH  024%=      5-min Rain = 0
KAMH 032055Z 11008KT 34/11 A3007 RMK A01 T03440109  RH  025%=      5-min Rain = 0
KAMH 032100Z 15008G16KT 34/11 A3007 RMK A01 T03440114  RH  026%=      5-min Rain = 0
KAMH 032105Z 17009G15KT 35/12 A3007 RMK A01 T03520115  RH  025%=      5-min Rain = 0
KAMH 032110Z 14009G14KT 36/11 A3007 RMK A01 T03550113  RH  024%=      5-min Rain = 0
KAMH 032115Z 14011KT 35/11 A3007 RMK A01 T03480112  RH  025%=      5-min Rain = 0
KAMH 032120Z 14011G18KT 35/12 A3007 RMK A01 T03510119  RH  025%=      5-min Rain = 0
KAMH 032125Z 12011G17KT 36/12 A3007 RMK A01 T03560120  RH  025%=      5-min Rain = 0
KAMH 032130Z 11011G17KT 35/12 A3007 RMK A01 T03530117  RH  025%=      5-min Rain = 0
KAMH 032135Z 12008G17KT 35/12 A3007 RMK A01 T03540119  RH  025%=      5-min Rain = 0
KAMH 032140Z 18009G15KT 35/12 A3007 RMK A01 T03450115  RH  026%=      5-min Rain = 0
KAMH 032145Z 17006KT 34/12 A3007 RMK A01 T03420116  RH  026%=      5-min Rain = 0
KAMH 032150Z 14010G15KT 35/12 A3006 RMK A01 T03510120  RH  026%=      5-min Rain = 0
KAMH 032155Z 13013KT 35/12 A3006 RMK A01 T03480117  RH  026%=      5-min Rain = 0
KAMH 032200Z 13014G19KT 34/12 A3006 RMK A01 T03440115  RH  026%=      5-min Rain = 0
KAMH 032205Z 16013G18KT 34/12 A3006 RMK A01 T03440116  RH  026%=      5-min Rain = 0
KAMH 032210Z 16011G16KT 35/12 A3006 RMK A01 T03510116  RH  025%=      5-min Rain = 0
KAMH 032215Z 17012KT 35/12 A3005 RMK A01 T03470116  RH  025%=      5-min Rain = 0
KAMH 032220Z 17009KT 35/12 A3005 RMK A01 T03480117  RH  026%=      5-min Rain = 0
KAMH 032225Z 17011G17KT 35/12 A3005 RMK A01 T03540116  RH  025%=      5-min Rain = 0
KAMH 032230Z 16011KT 36/12 A3004 RMK A01 T03590118  RH  024%=      5-min Rain = 0
KAMH 032235Z 15013G19KT 35/11 A3004 RMK A01 T03500114  RH  025%=      5-min Rain = 0
KAMH 032240Z 16009G14KT 34/11 A3004 RMK A01 T03420114  RH  026%=      5-min Rain = 0
KAMH 032245Z 15013G19KT 35/12 A3004 RMK A01 T03500115  RH  025%=      5-min Rain = 0
KAMH 032250Z 16011G16KT 35/11 A3003 RMK A01 T03520114  RH  025%=      5-min Rain = 0
KAMH 032255Z 17011KT 35/11 A3003 RMK A01 T03500112  RH  025%=      5-min Rain = 0
KAMH 032300Z 17012G17KT 35/11 A3004 RMK A01 T03500114  RH  025%=      5-min Rain = 0
KAMH 032305Z 17010KT 35/11 A3003 RMK A01 T03520113  RH  024%=      5-min Rain = 0
KAMH 032310Z 15009G16KT 35/11 A3003 RMK A01 T03520113  RH  024%=      5-min Rain = 0
KAMH 032315Z 15013G18KT 35/11 A3003 RMK A01 T03510112  RH  024%=      5-min Rain = 0
KAMH 032320Z 15011G18KT 35/11 A3003 RMK A01 T03490111  RH  024%=      5-min Rain = 0
KAMH 032325Z 14011KT 35/11 A3003 RMK A01 T03500112  RH  024%=      5-min Rain = 0
KAMH 032330Z 12014G21KT 35/11 A3003 RMK A01 T03510111  RH  024%=      5-min Rain = 0
KAMH 032335Z 14011KT 35/11 A3003 RMK A01 T03500112  RH  024%=      5-min Rain = 0
KAMH 032340Z 14011KT 35/11 A3003 RMK A01 T03480111  RH  025%=      5-min Rain = 0
KAMH 032345Z 15011G17KT 35/11 A3003 RMK A01 T03500112  RH  024%=      5-min Rain = 0
KAMH 032350Z 17011G16KT 35/11 A3003 RMK A01 T03470110  RH  025%=      5-min Rain = 0
KAMH 032355Z 16009KT 35/11 A3003 RMK A01 T03460110  RH  025%=      5-min Rain = 0
KAMH 040000Z 14010KT 34/11 A3003 RMK A01 T03400107  RH  025%=      5-min Rain = 0
KAMH 040005Z 15010G15KT 34/11 A3003 RMK A01 T03360107  RH  026%=      5-min Rain = 0
KAMH 040010Z 14012KT 34/11 A3003 RMK A01 T03400107  RH  025%=      5-min Rain = 0
KAMH 040015Z 13008KT 34/11 A3004 RMK A01 T03400106  RH  025%=      5-min Rain = 0
KAMH 040020Z 14008KT 34/11 A3004 RMK A01 T03380108  RH  025%=      5-min Rain = 0
KAMH 040025Z 13014G19KT 34/11 A3004 RMK A01 T03390112  RH  026%=      5-min Rain = 0
KAMH 040030Z 12012KT 34/11 A3004 RMK A01 T03360114  RH  027%=      5-min Rain = 0
KAMH 040035Z 14010G15KT 34/11 A3004 RMK A01 T03400112  RH  026%=      5-min Rain = 0
KAMH 040040Z 14011KT 34/11 A3004 RMK A01 T03390110  RH  026%=      5-min Rain = 0
KAMH 040045Z 12012G17KT 34/11 A3004 RMK A01 T03390114  RH  026%=      5-min Rain = 0
KAMH 040050Z 13012KT 34/11 A3004 RMK A01 T03360113  RH  027%=      5-min Rain = 0
KAMH 040055Z 11010KT 34/12 A3004 RMK A01 T03350116  RH  027%=      5-min Rain = 0
KAMH 040100Z 12014KT 33/12 A3004 RMK A01 T03330117  RH  028%=      5-min Rain = 0
KAMH 040105Z 13011KT 33/12 A3004 RMK A01 T03330115  RH  027%=      5-min Rain = 0
KAMH 040110Z 13013KT 33/11 A3004 RMK A01 T03320114  RH  027%=      5-min Rain = 0
KAMH 040115Z 13011G16KT 33/11 A3004 RMK A01 T03300113  RH  028%=      5-min Rain = 0
KAMH 040120Z 13011KT 33/11 A3004 RMK A01 T03290113  RH  028%=      5-min Rain = 0
KAMH 040125Z 13012KT 33/11 A3004 RMK A01 T03270112  RH  028%=      5-min Rain = 0
KAMH 040130Z 12011KT 33/11 A3004 RMK A01 T03250113  RH  028%=      5-min Rain = 0
KAMH 040135Z 12010KT 32/11 A3004 RMK A01 T03220112  RH  029%=      5-min Rain = 0
KAMH 040140Z 12010KT 32/11 A3004 RMK A01 T03200111  RH  029%=      5-min Rain = 0
KAMH 040145Z 12010KT 32/11 A3005 RMK A01 T03190112  RH  029%=      5-min Rain = 0
KAMH 040150Z 12009KT 32/11 A3005 RMK A01 T03160112  RH  030%=      5-min Rain = 0
KAMH 040155Z 12009KT 31/11 A3005 RMK A01 T03130112  RH  030%=      5-min Rain = 0
KAMH 040200Z 12008KT 31/11 A3006 RMK A01 T03100112  RH  031%=      5-min Rain = 0
KAMH 040205Z 12008KT 31/11 A3006 RMK A01 T03050113  RH  032%=      5-min Rain = 0
KAMH 040210Z 12008KT 30/11 A3006 RMK A01 T03040112  RH  032%=      5-min Rain = 0
KAMH 040215Z 12008KT 30/11 A3006 RMK A01 T03020111  RH  032%=      5-min Rain = 0
KAMH 040220Z 12008KT 30/11 A3006 RMK A01 T02990110  RH  032%=      5-min Rain = 0
KAMH 040225Z 12008KT 30/11 A3007 RMK A01 T02970109  RH  032%=      5-min Rain = 0
KAMH 040230Z 13007KT 29/11 A3007 RMK A01 T02940108  RH  033%=      5-min Rain = 0
KAMH 040235Z 13007KT 29/11 A3007 RMK A01 T02910108  RH  033%=      5-min Rain = 0
KAMH 040240Z 12007KT 29/11 A3007 RMK A01 T02880107  RH  034%=      5-min Rain = 0
KAMH 040245Z 12007KT 29/11 A3007 RMK A01 T02860106  RH  034%=      5-min Rain = 0
KAMH 040250Z 12007KT 28/11 A3007 RMK A01 T02830107  RH  035%=      5-min Rain = 0
KAMH 040255Z 12007KT 28/11 A3007 RMK A01 T02810107  RH  035%=      5-min Rain = 0
KAMH 040300Z 12006KT 28/11 A3007 RMK A01 T02790107  RH  035%=      5-min Rain = 0
KAMH 040305Z 12006KT 28/11 A3008 RMK A01 T02770107  RH  036%=      5-min Rain = 0
KAMH 040310Z 12007KT 28/11 A3008 RMK A01 T02750108  RH  036%=      5-min Rain = 0
KAMH 040315Z 12008KT 28/11 A3008 RMK A01 T02750108  RH  036%=      5-min Rain = 0
KAMH 040320Z 12007KT 28/11 A3008 RMK A01 T02760107  RH  036%=      5-min Rain = 0
KAMH 040325Z 12007KT 28/11 A3008 RMK A01 T02760108  RH  036%=      5-min Rain = 0
KAMH 040330Z 11007KT 28/11 A3009 RMK A01 T02760110  RH  037%=      5-min Rain = 0
KAMH 040335Z 11007KT 28/11 A3009 RMK A01 T02760109  RH  037%=      5-min Rain = 0
KAMH 040340Z 12007KT 28/11 A3009 RMK A01 T02750108  RH  037%=      5-min Rain = 0
KAMH 040345Z 11006KT 27/11 A301 RMK A01 T02730108  RH  037%=      5-min Rain = 0
KAMH 040350Z 11006KT 27/11 A301 RMK A01 T02700110  RH  038%=      5-min Rain = 0
KAMH 040355Z 11005KT 27/11 A301 RMK A01 T02690112  RH  039%=      5-min Rain = 0
KAMH 040400Z 11005KT 26/11 A3011 RMK A01 T02640109  RH  039%=      5-min Rain = 0
KAMH 040405Z 12005KT 26/11 A3011 RMK A01 T02610111  RH  040%=      5-min Rain = 0
KAMH 040410Z 11006KT 26/11 A3011 RMK A01 T02640107  RH  039%=      5-min Rain = 0
KAMH 040415Z 12006KT 27/11 A3011 RMK A01 T02650109  RH  039%=      5-min Rain = 0
KAMH 040420Z 12006KT 27/11 A3011 RMK A01 T02660107  RH  038%=      5-min Rain = 0
KAMH 040425Z 12006KT 27/11 A3011 RMK A01 T02670107  RH  038%=      5-min Rain = 0
KAMH 040430Z 12007KT 27/11 A3011 RMK A01 T02670107  RH  038%=      5-min Rain = 0
KAMH 040435Z 12007KT 27/11 A3011 RMK A01 T02680107  RH  038%=      5-min Rain = 0
KAMH 040440Z 12007KT 27/11 A3011 RMK A01 T02710107  RH  037%=      5-min Rain = 0
KAMH 040445Z 12008KT 27/11 A3011 RMK A01 T02730110  RH  037%=      5-min Rain = 0
KAMH 040450Z 12009KT 28/11 A3011 RMK A01 T02750113  RH  038%=      5-min Rain = 0
KAMH 040455Z 12009KT 27/12 A3011 RMK A01 T02740115  RH  038%=      5-min Rain = 0

Page generated in 0.009 seconds.